sensor_id;sensor_type;location;lat;lon;timestamp;P1;durP1;ratioP1;P2;durP2;ratioP2
2486;SDS011;1254;49.144;8.212;2023-01-01T00:01:30;25.87;;;16.27;;
2486;SDS011;1254;49.144;8.212;2023-01-01T00:04:06;14.20;;;10.17;;
2486;SDS011;1254;49.144;8.212;2023-01-01T00:06:37;9.63;;;7.73;;
2486;SDS011;1254;49.144;8.212;2023-01-01T00:09:05;10.10;;;7.43;;
2486;SDS011;1254;49.144;8.212;2023-01-01T00:11:51;10.03;;;6.77;;
2486;SDS011;1254;49.144;8.212;2023-01-01T00:14:19;8.33;;;7.10;;
2486;SDS011;1254;49.144;8.212;2023-01-01T00:16:47;8.57;;;7.67;;
2486;SDS011;1254;49.144;8.212;2023-01-01T00:19:17;9.73;;;7.27;;
2486;SDS011;1254;49.144;8.212;2023-01-01T00:21:45;10.60;;;6.97;;
2486;SDS011;1254;49.144;8.212;2023-01-01T00:24:13;7.77;;;6.33;;
2486;SDS011;1254;49.144;8.212;2023-01-01T00:26:41;6.63;;;6.00;;
2486;SDS011;1254;49.144;8.212;2023-01-01T00:29:10;7.97;;;6.03;;
2486;SDS011;1254;49.144;8.212;2023-01-01T00:31:38;7.40;;;4.77;;
2486;SDS011;1254;49.144;8.212;2023-01-01T00:34:08;5.60;;;4.30;;
2486;SDS011;1254;49.144;8.212;2023-01-01T00:36:38;6.00;;;4.70;;
2486;SDS011;1254;49.144;8.212;2023-01-01T00:39:06;10.00;;;7.33;;
2486;SDS011;1254;49.144;8.212;2023-01-01T00:41:34;10.20;;;6.87;;
2486;SDS011;1254;49.144;8.212;2023-01-01T00:44:02;6.50;;;5.57;;
2486;SDS011;1254;49.144;8.212;2023-01-01T00:46:31;17.10;;;11.80;;
2486;SDS011;1254;49.144;8.212;2023-01-01T00:48:59;27.13;;;19.17;;
2486;SDS011;1254;49.144;8.212;2023-01-01T00:51:27;24.70;;;18.33;;
2486;SDS011;1254;49.144;8.212;2023-01-01T00:53:57;39.00;;;22.60;;
2486;SDS011;1254;49.144;8.212;2023-01-01T00:56:25;39.40;;;25.53;;
2486;SDS011;1254;49.144;8.212;2023-01-01T00:58:53;61.13;;;36.37;;
2486;SDS011;1254;49.144;8.212;2023-01-01T01:01:22;41.97;;;30.40;;
2486;SDS011;1254;49.144;8.212;2023-01-01T01:03:50;40.90;;;32.60;;
2486;SDS011;1254;49.144;8.212;2023-01-01T01:06:18;48.03;;;35.23;;
2486;SDS011;1254;49.144;8.212;2023-01-01T01:08:46;50.20;;;39.07;;
2486;SDS011;1254;49.144;8.212;2023-01-01T01:11:17;29.93;;;20.53;;
2486;SDS011;1254;49.144;8.212;2023-01-01T01:13:46;29.67;;;20.90;;
2486;SDS011;1254;49.144;8.212;2023-01-01T01:16:16;19.40;;;13.83;;
2486;SDS011;1254;49.144;8.212;2023-01-01T01:18:45;12.10;;;9.17;;
2486;SDS011;1254;49.144;8.212;2023-01-01T01:21:13;11.83;;;9.70;;
2486;SDS011;1254;49.144;8.212;2023-01-01T01:23:42;11.83;;;9.07;;
2486;SDS011;1254;49.144;8.212;2023-01-01T01:26:11;13.00;;;9.27;;
2486;SDS011;1254;49.144;8.212;2023-01-01T01:28:41;9.97;;;8.83;;
2486;SDS011;1254;49.144;8.212;2023-01-01T01:31:09;12.20;;;9.30;;
2486;SDS011;1254;49.144;8.212;2023-01-01T01:33:38;12.67;;;8.80;;
2486;SDS011;1254;49.144;8.212;2023-01-01T01:36:06;10.33;;;9.20;;
2486;SDS011;1254;49.144;8.212;2023-01-01T01:38:34;14.17;;;9.30;;
2486;SDS011;1254;49.144;8.212;2023-01-01T01:41:02;12.10;;;9.60;;
2486;SDS011;1254;49.144;8.212;2023-01-01T01:46:22;10.90;;;8.33;;
2486;SDS011;1254;49.144;8.212;2023-01-01T01:48:52;10.67;;;9.27;;
2486;SDS011;1254;49.144;8.212;2023-01-01T01:51:23;10.83;;;9.70;;
2486;SDS011;1254;49.144;8.212;2023-01-01T01:53:55;11.57;;;9.90;;
2486;SDS011;1254;49.144;8.212;2023-01-01T01:56:25;14.03;;;10.20;;
2486;SDS011;1254;49.144;8.212;2023-01-01T01:58:56;16.10;;;10.17;;
2486;SDS011;1254;49.144;8.212;2023-01-01T02:01:26;18.93;;;11.23;;
2486;SDS011;1254;49.144;8.212;2023-01-01T02:03:56;10.77;;;9.63;;
2486;SDS011;1254;49.144;8.212;2023-01-01T02:06:24;14.50;;;10.80;;
2486;SDS011;1254;49.144;8.212;2023-01-01T02:08:53;15.80;;;10.93;;
2486;SDS011;1254;49.144;8.212;2023-01-01T02:11:22;12.00;;;9.80;;
2486;SDS011;1254;49.144;8.212;2023-01-01T02:13:51;17.63;;;10.70;;
2486;SDS011;1254;49.144;8.212;2023-01-01T02:16:20;14.20;;;11.67;;
2486;SDS011;1254;49.144;8.212;2023-01-01T02:18:54;13.27;;;10.30;;
2486;SDS011;1254;49.144;8.212;2023-01-01T02:21:26;13.03;;;10.47;;
2486;SDS011;1254;49.144;8.212;2023-01-01T02:24:00;14.00;;;9.83;;
2486;SDS011;1254;49.144;8.212;2023-01-01T02:26:39;11.70;;;9.77;;
2486;SDS011;1254;49.144;8.212;2023-01-01T02:29:17;12.10;;;10.13;;
2486;SDS011;1254;49.144;8.212;2023-01-01T02:31:48;11.60;;;10.40;;
2486;SDS011;1254;49.144;8.212;2023-01-01T02:34:17;14.30;;;11.37;;
2486;SDS011;1254;49.144;8.212;2023-01-01T02:36:48;12.13;;;9.80;;
2486;SDS011;1254;49.144;8.212;2023-01-01T02:39:18;14.70;;;10.97;;
2486;SDS011;1254;49.144;8.212;2023-01-01T02:41:49;14.80;;;10.83;;
2486;SDS011;1254;49.144;8.212;2023-01-01T02:44:21;12.20;;;9.60;;
2486;SDS011;1254;49.144;8.212;2023-01-01T02:46:49;18.10;;;10.87;;
2486;SDS011;1254;49.144;8.212;2023-01-01T02:49:17;13.30;;;8.97;;
2486;SDS011;1254;49.144;8.212;2023-01-01T02:51:50;16.10;;;10.80;;
2486;SDS011;1254;49.144;8.212;2023-01-01T02:54:24;15.17;;;10.80;;
2486;SDS011;1254;49.144;8.212;2023-01-01T02:56:58;17.10;;;10.47;;
2486;SDS011;1254;49.144;8.212;2023-01-01T02:59:31;13.77;;;10.23;;
2486;SDS011;1254;49.144;8.212;2023-01-01T03:02:28;10.47;;;8.63;;
2486;SDS011;1254;49.144;8.212;2023-01-01T03:05:03;11.10;;;8.50;;
2486;SDS011;1254;49.144;8.212;2023-01-01T03:07:35;10.83;;;9.07;;
2486;SDS011;1254;49.144;8.212;2023-01-01T03:10:08;11.17;;;9.37;;
2486;SDS011;1254;49.144;8.212;2023-01-01T03:12:41;12.70;;;9.77;;
2486;SDS011;1254;49.144;8.212;2023-01-01T03:15:16;10.27;;;8.73;;
2486;SDS011;1254;49.144;8.212;2023-01-01T03:17:48;12.30;;;8.77;;
2486;SDS011;1254;49.144;8.212;2023-01-01T03:20:20;13.20;;;9.40;;
2486;SDS011;1254;49.144;8.212;2023-01-01T03:22:50;10.77;;;8.83;;
2486;SDS011;1254;49.144;8.212;2023-01-01T03:25:20;10.73;;;7.80;;
2486;SDS011;1254;49.144;8.212;2023-01-01T03:27:50;11.73;;;9.23;;
2486;SDS011;1254;49.144;8.212;2023-01-01T03:30:20;10.63;;;8.27;;
2486;SDS011;1254;49.144;8.212;2023-01-01T03:32:50;12.37;;;8.83;;
2486;SDS011;1254;49.144;8.212;2023-01-01T03:35:33;11.13;;;8.47;;
2486;SDS011;1254;49.144;8.212;2023-01-01T03:38:04;9.87;;;8.00;;
2486;SDS011;1254;49.144;8.212;2023-01-01T03:40:33;13.87;;;9.43;;
2486;SDS011;1254;49.144;8.212;2023-01-01T03:43:04;9.40;;;7.93;;
2486;SDS011;1254;49.144;8.212;2023-01-01T03:45:36;10.23;;;7.30;;
2486;SDS011;1254;49.144;8.212;2023-01-01T03:48:05;10.03;;;7.80;;
2486;SDS011;1254;49.144;8.212;2023-01-01T03:50:36;9.67;;;7.90;;
2486;SDS011;1254;49.144;8.212;2023-01-01T03:53:08;9.93;;;8.40;;
2486;SDS011;1254;49.144;8.212;2023-01-01T03:55:37;11.17;;;8.17;;
2486;SDS011;1254;49.144;8.212;2023-01-01T03:58:10;11.20;;;7.53;;
2486;SDS011;1254;49.144;8.212;2023-01-01T04:00:44;12.33;;;7.83;;
2486;SDS011;1254;49.144;8.212;2023-01-01T04:03:14;9.93;;;8.37;;
2486;SDS011;1254;49.144;8.212;2023-01-01T04:05:45;14.03;;;7.37;;
2486;SDS011;1254;49.144;8.212;2023-01-01T04:08:13;9.40;;;7.43;;
2486;SDS011;1254;49.144;8.212;2023-01-01T04:10:42;13.93;;;9.30;;
2486;SDS011;1254;49.144;8.212;2023-01-01T04:13:11;9.23;;;7.60;;
2486;SDS011;1254;49.144;8.212;2023-01-01T04:15:39;9.00;;;7.60;;
2486;SDS011;1254;49.144;8.212;2023-01-01T04:18:09;11.30;;;8.03;;
2486;SDS011;1254;49.144;8.212;2023-01-01T04:20:37;10.80;;;7.60;;
2486;SDS011;1254;49.144;8.212;2023-01-01T04:23:05;9.03;;;7.43;;
2486;SDS011;1254;49.144;8.212;2023-01-01T04:25:34;10.43;;;8.23;;
2486;SDS011;1254;49.144;8.212;2023-01-01T04:28:02;12.25;;;8.50;;
2486;SDS011;1254;49.144;8.212;2023-01-01T04:30:30;10.30;;;7.67;;
2486;SDS011;1254;49.144;8.212;2023-01-01T04:32:58;13.80;;;8.10;;
2486;SDS011;1254;49.144;8.212;2023-01-01T04:35:28;10.43;;;7.67;;
2486;SDS011;1254;49.144;8.212;2023-01-01T04:37:56;10.50;;;8.00;;
2486;SDS011;1254;49.144;8.212;2023-01-01T04:40:27;8.77;;;7.60;;
2486;SDS011;1254;49.144;8.212;2023-01-01T04:42:56;11.53;;;8.47;;
2486;SDS011;1254;49.144;8.212;2023-01-01T04:45:24;11.60;;;9.03;;
2486;SDS011;1254;49.144;8.212;2023-01-01T04:47:52;8.33;;;7.30;;
2486;SDS011;1254;49.144;8.212;2023-01-01T04:50:20;11.65;;;7.60;;
2486;SDS011;1254;49.144;8.212;2023-01-01T04:52:50;11.60;;;7.40;;
2486;SDS011;1254;49.144;8.212;2023-01-01T04:55:19;9.05;;;6.50;;
2486;SDS011;1254;49.144;8.212;2023-01-01T04:57:47;10.53;;;7.50;;
2486;SDS011;1254;49.144;8.212;2023-01-01T05:00:15;9.80;;;7.60;;
2486;SDS011;1254;49.144;8.212;2023-01-01T05:02:44;10.00;;;7.57;;
2486;SDS011;1254;49.144;8.212;2023-01-01T05:05:12;11.70;;;7.17;;
2486;SDS011;1254;49.144;8.212;2023-01-01T05:07:40;11.53;;;6.70;;
2486;SDS011;1254;49.144;8.212;2023-01-01T05:10:10;9.18;;;6.97;;
2486;SDS011;1254;49.144;8.212;2023-01-01T05:12:41;8.03;;;7.23;;
2486;SDS011;1254;49.144;8.212;2023-01-01T05:15:09;8.25;;;6.88;;
2486;SDS011;1254;49.144;8.212;2023-01-01T05:17:37;8.05;;;6.25;;
2486;SDS011;1254;49.144;8.212;2023-01-01T05:20:06;10.18;;;6.50;;
2486;SDS011;1254;49.144;8.212;2023-01-01T05:22:34;7.60;;;6.20;;
2486;SDS011;1254;49.144;8.212;2023-01-01T05:25:03;8.93;;;6.53;;
2486;SDS011;1254;49.144;8.212;2023-01-01T05:27:32;6.72;;;5.45;;
2486;SDS011;1254;49.144;8.212;2023-01-01T05:30:01;7.43;;;5.87;;
2486;SDS011;1254;49.144;8.212;2023-01-01T05:32:29;10.30;;;6.33;;
2486;SDS011;1254;49.144;8.212;2023-01-01T05:34:58;9.10;;;5.90;;
2486;SDS011;1254;49.144;8.212;2023-01-01T05:37:26;7.13;;;5.87;;
2486;SDS011;1254;49.144;8.212;2023-01-01T05:39:54;9.00;;;6.27;;
2486;SDS011;1254;49.144;8.212;2023-01-01T05:42:22;9.27;;;6.60;;
2486;SDS011;1254;49.144;8.212;2023-01-01T05:44:51;7.17;;;5.80;;
2486;SDS011;1254;49.144;8.212;2023-01-01T05:47:20;7.63;;;6.77;;
2486;SDS011;1254;49.144;8.212;2023-01-01T05:49:48;5.60;;;5.10;;
2486;SDS011;1254;49.144;8.212;2023-01-01T05:52:17;13.00;;;6.40;;
2486;SDS011;1254;49.144;8.212;2023-01-01T05:54:45;6.90;;;5.50;;
2486;SDS011;1254;49.144;8.212;2023-01-01T05:57:13;7.00;;;6.03;;
2486;SDS011;1254;49.144;8.212;2023-01-01T05:59:41;6.77;;;5.43;;
2486;SDS011;1254;49.144;8.212;2023-01-01T06:02:11;8.17;;;5.10;;
2486;SDS011;1254;49.144;8.212;2023-01-01T06:04:39;7.72;;;5.20;;
2486;SDS011;1254;49.144;8.212;2023-01-01T06:07:07;7.80;;;5.20;;
2486;SDS011;1254;49.144;8.212;2023-01-01T06:09:35;6.20;;;5.60;;
2486;SDS011;1254;49.144;8.212;2023-01-01T06:12:04;11.00;;;5.15;;
2486;SDS011;1254;49.144;8.212;2023-01-01T06:14:32;6.03;;;4.50;;
2486;SDS011;1254;49.144;8.212;2023-01-01T06:17:00;10.05;;;4.60;;
2486;SDS011;1254;49.144;8.212;2023-01-01T06:19:29;5.57;;;4.70;;
2486;SDS011;1254;49.144;8.212;2023-01-01T06:21:58;4.20;;;3.80;;
2486;SDS011;1254;49.144;8.212;2023-01-01T06:24:26;5.50;;;4.40;;
2486;SDS011;1254;49.144;8.212;2023-01-01T06:26:54;5.30;;;3.97;;
2486;SDS011;1254;49.144;8.212;2023-01-01T06:29:22;7.63;;;4.73;;
2486;SDS011;1254;49.144;8.212;2023-01-01T06:31:50;5.07;;;3.90;;
2486;SDS011;1254;49.144;8.212;2023-01-01T06:34:18;7.33;;;4.90;;
2486;SDS011;1254;49.144;8.212;2023-01-01T06:36:48;4.70;;;4.13;;
2486;SDS011;1254;49.144;8.212;2023-01-01T06:39:16;5.27;;;4.60;;
2486;SDS011;1254;49.144;8.212;2023-01-01T06:41:44;5.50;;;4.43;;
2486;SDS011;1254;49.144;8.212;2023-01-01T06:44:12;6.15;;;4.32;;
2486;SDS011;1254;49.144;8.212;2023-01-01T06:46:40;4.80;;;3.87;;
2486;SDS011;1254;49.144;8.212;2023-01-01T06:49:10;4.50;;;3.90;;
2486;SDS011;1254;49.144;8.212;2023-01-01T06:51:39;4.13;;;3.33;;
2486;SDS011;1254;49.144;8.212;2023-01-01T06:54:09;4.83;;;3.90;;
2486;SDS011;1254;49.144;8.212;2023-01-01T06:56:37;5.20;;;3.70;;
2486;SDS011;1254;49.144;8.212;2023-01-01T06:59:06;6.67;;;3.80;;
2486;SDS011;1254;49.144;8.212;2023-01-01T07:01:35;10.40;;;4.10;;
2486;SDS011;1254;49.144;8.212;2023-01-01T07:04:05;7.10;;;4.33;;
2486;SDS011;1254;49.144;8.212;2023-01-01T07:06:34;8.23;;;4.93;;
2486;SDS011;1254;49.144;8.212;2023-01-01T07:09:03;4.87;;;3.97;;
2486;SDS011;1254;49.144;8.212;2023-01-01T07:11:32;6.17;;;4.30;;
2486;SDS011;1254;49.144;8.212;2023-01-01T07:14:01;5.87;;;3.40;;
2486;SDS011;1254;49.144;8.212;2023-01-01T07:16:29;7.03;;;3.10;;
2486;SDS011;1254;49.144;8.212;2023-01-01T07:18:57;5.50;;;4.13;;
2486;SDS011;1254;49.144;8.212;2023-01-01T07:21:29;5.07;;;3.90;;
2486;SDS011;1254;49.144;8.212;2023-01-01T07:23:58;3.50;;;3.30;;
2486;SDS011;1254;49.144;8.212;2023-01-01T07:26:27;3.67;;;3.03;;
2486;SDS011;1254;49.144;8.212;2023-01-01T07:28:56;3.83;;;3.40;;
2486;SDS011;1254;49.144;8.212;2023-01-01T07:31:25;5.07;;;3.60;;
2486;SDS011;1254;49.144;8.212;2023-01-01T07:33:53;8.60;;;4.20;;
2486;SDS011;1254;49.144;8.212;2023-01-01T07:36:21;4.43;;;4.03;;
2486;SDS011;1254;49.144;8.212;2023-01-01T07:38:49;5.10;;;3.83;;
2486;SDS011;1254;49.144;8.212;2023-01-01T07:41:17;6.20;;;3.73;;
2486;SDS011;1254;49.144;8.212;2023-01-01T07:43:45;8.55;;;4.10;;
2486;SDS011;1254;49.144;8.212;2023-01-01T07:46:15;6.35;;;4.28;;
2486;SDS011;1254;49.144;8.212;2023-01-01T07:48:44;4.30;;;3.60;;
2486;SDS011;1254;49.144;8.212;2023-01-01T07:51:12;7.80;;;4.30;;
2486;SDS011;1254;49.144;8.212;2023-01-01T07:53:40;5.88;;;4.40;;
2486;SDS011;1254;49.144;8.212;2023-01-01T07:56:09;9.03;;;4.00;;
2486;SDS011;1254;49.144;8.212;2023-01-01T07:58:37;6.35;;;4.07;;
2486;SDS011;1254;49.144;8.212;2023-01-01T08:01:08;13.40;;;4.43;;
2486;SDS011;1254;49.144;8.212;2023-01-01T08:03:37;7.82;;;4.90;;
2486;SDS011;1254;49.144;8.212;2023-01-01T08:06:07;11.88;;;4.55;;
2486;SDS011;1254;49.144;8.212;2023-01-01T08:08:35;6.23;;;4.33;;
2486;SDS011;1254;49.144;8.212;2023-01-01T08:11:04;10.02;;;4.68;;
2486;SDS011;1254;49.144;8.212;2023-01-01T08:13:32;5.18;;;4.50;;
2486;SDS011;1254;49.144;8.212;2023-01-01T08:16:00;6.47;;;4.60;;
2486;SDS011;1254;49.144;8.212;2023-01-01T08:18:29;6.70;;;4.17;;
2486;SDS011;1254;49.144;8.212;2023-01-01T08:20:58;8.00;;;4.00;;
2486;SDS011;1254;49.144;8.212;2023-01-01T08:23:26;8.77;;;5.20;;
2486;SDS011;1254;49.144;8.212;2023-01-01T08:25:57;4.73;;;4.03;;
2486;SDS011;1254;49.144;8.212;2023-01-01T08:28:25;7.60;;;5.07;;
2486;SDS011;1254;49.144;8.212;2023-01-01T08:30:53;10.07;;;6.70;;
2486;SDS011;1254;49.144;8.212;2023-01-01T08:33:21;22.85;;;13.65;;
2486;SDS011;1254;49.144;8.212;2023-01-01T08:35:51;34.80;;;20.43;;
2486;SDS011;1254;49.144;8.212;2023-01-01T08:38:20;11.68;;;7.88;;
2486;SDS011;1254;49.144;8.212;2023-01-01T08:40:49;10.80;;;7.05;;
2486;SDS011;1254;49.144;8.212;2023-01-01T08:43:17;13.93;;;6.37;;
2486;SDS011;1254;49.144;8.212;2023-01-01T08:45:45;12.23;;;6.67;;
2486;SDS011;1254;49.144;8.212;2023-01-01T08:48:13;9.70;;;6.47;;
2486;SDS011;1254;49.144;8.212;2023-01-01T08:50:41;6.90;;;5.87;;
2486;SDS011;1254;49.144;8.212;2023-01-01T08:53:09;12.20;;;8.80;;
2486;SDS011;1254;49.144;8.212;2023-01-01T08:55:40;11.63;;;7.87;;
2486;SDS011;1254;49.144;8.212;2023-01-01T08:58:08;8.13;;;6.73;;
2486;SDS011;1254;49.144;8.212;2023-01-01T09:00:36;7.73;;;4.40;;
2486;SDS011;1254;49.144;8.212;2023-01-01T09:03:04;9.40;;;4.50;;
2486;SDS011;1254;49.144;8.212;2023-01-01T09:05:32;4.37;;;3.93;;
2486;SDS011;1254;49.144;8.212;2023-01-01T09:08:01;10.00;;;4.80;;
2486;SDS011;1254;49.144;8.212;2023-01-01T09:10:29;8.30;;;3.93;;
2486;SDS011;1254;49.144;8.212;2023-01-01T09:12:58;4.97;;;4.57;;
2486;SDS011;1254;49.144;8.212;2023-01-01T09:15:26;7.80;;;4.60;;
2486;SDS011;1254;49.144;8.212;2023-01-01T09:17:55;6.53;;;3.83;;
2486;SDS011;1254;49.144;8.212;2023-01-01T09:20:23;4.30;;;3.50;;
2486;SDS011;1254;49.144;8.212;2023-01-01T09:22:51;6.13;;;3.40;;
2486;SDS011;1254;49.144;8.212;2023-01-01T09:25:19;8.50;;;3.37;;
2486;SDS011;1254;49.144;8.212;2023-01-01T09:27:47;6.20;;;3.97;;
2486;SDS011;1254;49.144;8.212;2023-01-01T09:30:17;4.30;;;2.67;;
2486;SDS011;1254;49.144;8.212;2023-01-01T09:32:45;6.70;;;3.83;;
2486;SDS011;1254;49.144;8.212;2023-01-01T09:35:13;6.10;;;3.60;;
2486;SDS011;1254;49.144;8.212;2023-01-01T09:37:41;5.17;;;3.87;;
2486;SDS011;1254;49.144;8.212;2023-01-01T09:40:10;8.55;;;3.90;;
2486;SDS011;1254;49.144;8.212;2023-01-01T09:42:45;5.23;;;4.13;;
2486;SDS011;1254;49.144;8.212;2023-01-01T09:45:20;4.97;;;3.67;;
2486;SDS011;1254;49.144;8.212;2023-01-01T09:47:50;4.70;;;4.20;;
2486;SDS011;1254;49.144;8.212;2023-01-01T09:50:20;6.90;;;6.13;;
2486;SDS011;1254;49.144;8.212;2023-01-01T09:52:49;5.60;;;5.00;;
2486;SDS011;1254;49.144;8.212;2023-01-01T09:55:21;8.23;;;5.33;;
2486;SDS011;1254;49.144;8.212;2023-01-01T09:57:50;10.97;;;7.63;;
2486;SDS011;1254;49.144;8.212;2023-01-01T10:00:19;10.13;;;7.27;;
2486;SDS011;1254;49.144;8.212;2023-01-01T10:02:57;7.03;;;4.67;;
2486;SDS011;1254;49.144;8.212;2023-01-01T10:05:30;12.80;;;6.80;;
2486;SDS011;1254;49.144;8.212;2023-01-01T10:08:00;14.70;;;10.37;;
2486;SDS011;1254;49.144;8.212;2023-01-01T10:10:34;15.13;;;11.27;;
2486;SDS011;1254;49.144;8.212;2023-01-01T10:13:05;16.40;;;10.90;;
2486;SDS011;1254;49.144;8.212;2023-01-01T10:15:37;6.77;;;4.87;;
2486;SDS011;1254;49.144;8.212;2023-01-01T10:18:09;12.23;;;5.10;;
2486;SDS011;1254;49.144;8.212;2023-01-01T10:20:41;14.00;;;7.90;;
2486;SDS011;1254;49.144;8.212;2023-01-01T10:23:11;9.53;;;6.60;;
2486;SDS011;1254;49.144;8.212;2023-01-01T10:25:42;11.23;;;5.30;;
2486;SDS011;1254;49.144;8.212;2023-01-01T10:28:12;6.60;;;4.37;;
2486;SDS011;1254;49.144;8.212;2023-01-01T10:30:43;5.67;;;3.60;;
2486;SDS011;1254;49.144;8.212;2023-01-01T10:33:11;7.50;;;4.47;;
2486;SDS011;1254;49.144;8.212;2023-01-01T10:35:41;6.93;;;3.80;;
2486;SDS011;1254;49.144;8.212;2023-01-01T10:38:11;6.93;;;4.30;;
2486;SDS011;1254;49.144;8.212;2023-01-01T10:40:44;4.40;;;4.00;;
2486;SDS011;1254;49.144;8.212;2023-01-01T10:43:12;5.17;;;4.40;;
2486;SDS011;1254;49.144;8.212;2023-01-01T10:45:42;7.47;;;5.70;;
2486;SDS011;1254;49.144;8.212;2023-01-01T10:48:13;9.30;;;4.97;;
2486;SDS011;1254;49.144;8.212;2023-01-01T10:50:43;11.73;;;5.77;;
2486;SDS011;1254;49.144;8.212;2023-01-01T10:53:23;15.73;;;6.83;;
2486;SDS011;1254;49.144;8.212;2023-01-01T10:55:56;8.43;;;4.80;;
2486;SDS011;1254;49.144;8.212;2023-01-01T10:58:26;5.77;;;4.30;;
2486;SDS011;1254;49.144;8.212;2023-01-01T11:00:56;7.57;;;3.90;;
2486;SDS011;1254;49.144;8.212;2023-01-01T11:03:26;9.60;;;4.03;;
2486;SDS011;1254;49.144;8.212;2023-01-01T11:06:01;5.80;;;3.67;;
2486;SDS011;1254;49.144;8.212;2023-01-01T11:08:31;13.93;;;4.10;;
2486;SDS011;1254;49.144;8.212;2023-01-01T11:11:00;5.60;;;3.80;;
2486;SDS011;1254;49.144;8.212;2023-01-01T11:13:29;6.10;;;3.40;;
2486;SDS011;1254;49.144;8.212;2023-01-01T11:15:58;6.03;;;3.70;;
2486;SDS011;1254;49.144;8.212;2023-01-01T11:18:28;4.17;;;3.87;;
2486;SDS011;1254;49.144;8.212;2023-01-01T11:21:01;4.40;;;4.07;;
2486;SDS011;1254;49.144;8.212;2023-01-01T11:23:30;7.20;;;4.67;;
2486;SDS011;1254;49.144;8.212;2023-01-01T11:26:00;6.67;;;4.97;;
2486;SDS011;1254;49.144;8.212;2023-01-01T11:28:29;13.43;;;7.70;;
2486;SDS011;1254;49.144;8.212;2023-01-01T11:31:01;7.30;;;5.40;;
2486;SDS011;1254;49.144;8.212;2023-01-01T11:33:31;6.07;;;3.73;;
2486;SDS011;1254;49.144;8.212;2023-01-01T11:36:01;6.67;;;5.10;;
2486;SDS011;1254;49.144;8.212;2023-01-01T11:38:29;6.87;;;4.17;;
2486;SDS011;1254;49.144;8.212;2023-01-01T11:41:00;8.03;;;4.53;;
2486;SDS011;1254;49.144;8.212;2023-01-01T11:43:30;4.53;;;3.97;;
2486;SDS011;1254;49.144;8.212;2023-01-01T11:46:04;6.57;;;5.07;;
2486;SDS011;1254;49.144;8.212;2023-01-01T11:48:34;10.03;;;5.60;;
2486;SDS011;1254;49.144;8.212;2023-01-01T11:51:03;9.07;;;4.67;;
2486;SDS011;1254;49.144;8.212;2023-01-01T11:53:33;16.73;;;9.37;;
2486;SDS011;1254;49.144;8.212;2023-01-01T11:56:03;9.20;;;7.03;;
2486;SDS011;1254;49.144;8.212;2023-01-01T11:58:36;9.00;;;4.80;;
2486;SDS011;1254;49.144;8.212;2023-01-01T12:01:09;13.70;;;7.50;;
2486;SDS011;1254;49.144;8.212;2023-01-01T12:03:41;5.67;;;4.20;;
2486;SDS011;1254;49.144;8.212;2023-01-01T12:06:14;8.23;;;4.60;;
2486;SDS011;1254;49.144;8.212;2023-01-01T12:08:43;9.07;;;3.93;;
2486;SDS011;1254;49.144;8.212;2023-01-01T12:11:16;3.83;;;3.43;;
2486;SDS011;1254;49.144;8.212;2023-01-01T12:13:47;4.93;;;3.87;;
2486;SDS011;1254;49.144;8.212;2023-01-01T12:16:19;5.80;;;5.13;;
2486;SDS011;1254;49.144;8.212;2023-01-01T12:18:51;4.80;;;4.40;;
2486;SDS011;1254;49.144;8.212;2023-01-01T12:21:24;6.73;;;4.90;;
2486;SDS011;1254;49.144;8.212;2023-01-01T12:23:53;6.40;;;4.53;;
2486;SDS011;1254;49.144;8.212;2023-01-01T12:26:22;4.77;;;4.33;;
2486;SDS011;1254;49.144;8.212;2023-01-01T12:28:58;8.50;;;5.27;;
2486;SDS011;1254;49.144;8.212;2023-01-01T12:31:35;8.67;;;5.30;;
2486;SDS011;1254;49.144;8.212;2023-01-01T12:34:08;7.47;;;5.30;;
2486;SDS011;1254;49.144;8.212;2023-01-01T12:36:40;9.40;;;5.30;;
2486;SDS011;1254;49.144;8.212;2023-01-01T12:42:06;13.40;;;5.00;;
2486;SDS011;1254;49.144;8.212;2023-01-01T12:44:42;7.13;;;5.27;;
2486;SDS011;1254;49.144;8.212;2023-01-01T12:47:27;9.70;;;5.30;;
2486;SDS011;1254;49.144;8.212;2023-01-01T12:50:02;6.90;;;5.33;;
2486;SDS011;1254;49.144;8.212;2023-01-01T12:52:39;9.50;;;6.10;;
2486;SDS011;1254;49.144;8.212;2023-01-01T12:58:03;7.20;;;6.10;;
2486;SDS011;1254;49.144;8.212;2023-01-01T13:00:33;5.60;;;5.10;;
2486;SDS011;1254;49.144;8.212;2023-01-01T13:03:05;9.03;;;6.00;;
2486;SDS011;1254;49.144;8.212;2023-01-01T13:05:37;10.50;;;5.80;;
2486;SDS011;1254;49.144;8.212;2023-01-01T13:08:07;4.93;;;4.40;;
2486;SDS011;1254;49.144;8.212;2023-01-01T13:10:36;6.77;;;4.80;;
2486;SDS011;1254;49.144;8.212;2023-01-01T13:13:05;5.13;;;4.63;;
2486;SDS011;1254;49.144;8.212;2023-01-01T13:15:40;8.57;;;4.33;;
2486;SDS011;1254;49.144;8.212;2023-01-01T13:18:16;6.83;;;4.60;;
2486;SDS011;1254;49.144;8.212;2023-01-01T13:20:53;4.77;;;4.27;;
2486;SDS011;1254;49.144;8.212;2023-01-01T13:23:44;8.17;;;5.27;;
2486;SDS011;1254;49.144;8.212;2023-01-01T13:26:31;10.27;;;4.60;;
2486;SDS011;1254;49.144;8.212;2023-01-01T13:31:58;4.00;;;3.63;;
2486;SDS011;1254;49.144;8.212;2023-01-01T13:34:37;6.50;;;4.50;;
2486;SDS011;1254;49.144;8.212;2023-01-01T13:37:26;4.87;;;4.47;;
2486;SDS011;1254;49.144;8.212;2023-01-01T13:39:55;7.03;;;4.27;;
2486;SDS011;1254;49.144;8.212;2023-01-01T13:42:39;7.20;;;4.63;;
2486;SDS011;1254;49.144;8.212;2023-01-01T13:45:12;4.60;;;4.23;;
2486;SDS011;1254;49.144;8.212;2023-01-01T13:47:46;9.73;;;5.13;;
2486;SDS011;1254;49.144;8.212;2023-01-01T13:50:18;14.20;;;5.07;;
2486;SDS011;1254;49.144;8.212;2023-01-01T13:52:53;5.87;;;4.83;;
2486;SDS011;1254;49.144;8.212;2023-01-01T13:55:37;5.30;;;4.00;;
2486;SDS011;1254;49.144;8.212;2023-01-01T14:03:37;6.30;;;4.20;;
2486;SDS011;1254;49.144;8.212;2023-01-01T14:06:08;12.07;;;5.50;;
2486;SDS011;1254;49.144;8.212;2023-01-01T14:08:39;10.00;;;4.30;;
2486;SDS011;1254;49.144;8.212;2023-01-01T14:11:16;8.60;;;4.93;;
2486;SDS011;1254;49.144;8.212;2023-01-01T14:13:45;7.20;;;4.33;;
2486;SDS011;1254;49.144;8.212;2023-01-01T14:16:13;5.83;;;4.37;;
2486;SDS011;1254;49.144;8.212;2023-01-01T14:18:42;4.60;;;4.20;;
2486;SDS011;1254;49.144;8.212;2023-01-01T14:21:12;4.80;;;4.30;;
2486;SDS011;1254;49.144;8.212;2023-01-01T14:23:43;5.40;;;4.00;;
2486;SDS011;1254;49.144;8.212;2023-01-01T14:26:12;6.53;;;4.73;;
2486;SDS011;1254;49.144;8.212;2023-01-01T14:28:41;6.90;;;3.80;;
2486;SDS011;1254;49.144;8.212;2023-01-01T14:31:10;13.07;;;6.07;;
2486;SDS011;1254;49.144;8.212;2023-01-01T14:33:39;20.07;;;9.07;;
2486;SDS011;1254;49.144;8.212;2023-01-01T14:36:13;15.67;;;8.70;;
2486;SDS011;1254;49.144;8.212;2023-01-01T14:38:44;17.57;;;9.37;;
2486;SDS011;1254;49.144;8.212;2023-01-01T14:41:13;22.30;;;8.63;;
2486;SDS011;1254;49.144;8.212;2023-01-01T14:43:42;9.83;;;6.73;;
2486;SDS011;1254;49.144;8.212;2023-01-01T14:46:12;15.70;;;9.40;;
2486;SDS011;1254;49.144;8.212;2023-01-01T14:48:41;21.50;;;11.20;;
2486;SDS011;1254;49.144;8.212;2023-01-01T14:51:11;23.07;;;12.40;;
2486;SDS011;1254;49.144;8.212;2023-01-01T14:53:39;28.80;;;13.33;;
2486;SDS011;1254;49.144;8.212;2023-01-01T14:56:09;43.33;;;17.20;;
2486;SDS011;1254;49.144;8.212;2023-01-01T14:58:47;27.23;;;13.27;;
2486;SDS011;1254;49.144;8.212;2023-01-01T15:01:16;7.80;;;5.30;;
2486;SDS011;1254;49.144;8.212;2023-01-01T15:03:55;9.17;;;4.77;;
2486;SDS011;1254;49.144;8.212;2023-01-01T15:06:23;16.27;;;5.47;;
2486;SDS011;1254;49.144;8.212;2023-01-01T15:08:51;10.60;;;5.27;;
2486;SDS011;1254;49.144;8.212;2023-01-01T15:11:21;6.27;;;5.20;;
2486;SDS011;1254;49.144;8.212;2023-01-01T15:13:53;10.60;;;6.10;;
2486;SDS011;1254;49.144;8.212;2023-01-01T15:16:22;17.10;;;10.93;;
2486;SDS011;1254;49.144;8.212;2023-01-01T15:18:50;15.83;;;9.00;;
2486;SDS011;1254;49.144;8.212;2023-01-01T15:21:22;15.00;;;9.40;;
2486;SDS011;1254;49.144;8.212;2023-01-01T15:23:53;11.90;;;9.13;;
2486;SDS011;1254;49.144;8.212;2023-01-01T15:26:27;14.40;;;9.33;;
2486;SDS011;1254;49.144;8.212;2023-01-01T15:28:55;17.20;;;8.70;;
2486;SDS011;1254;49.144;8.212;2023-01-01T15:31:32;16.77;;;8.90;;
2486;SDS011;1254;49.144;8.212;2023-01-01T15:34:00;16.40;;;11.07;;
2486;SDS011;1254;49.144;8.212;2023-01-01T15:36:28;13.73;;;9.17;;
2486;SDS011;1254;49.144;8.212;2023-01-01T15:38:57;13.57;;;8.50;;
2486;SDS011;1254;49.144;8.212;2023-01-01T15:41:36;12.13;;;7.43;;
2486;SDS011;1254;49.144;8.212;2023-01-01T15:44:06;17.30;;;9.40;;